MAPA DE AEROPUERTO

INFORMACIÓN METAR y TAF

METAR FOR ENBR
ADDS - METARS form results

(1333 UTC 11 April 2021)
Data provider http://aviationweather.gov/metar/data/
 
METAR text: ENBR 111320Z 01006KT 290V060 9999 FEW025 06/M06 Q1016 NOSIG RMK WIND 1200FT 03006KT
Conditions at: ENBR (BERGEN/FLESLAND , NO) observed 1320 UTC 11 April 2021
Temperature: 6.0°C (43°F)
Dewpoint: -6.0°C (21°F) [RH = 42%]
Pressure (altimeter): 30.00 inches Hg (1016.0 mb)
Winds: from the N (10 degrees) at 7 MPH (6 knots; 3.1 m/s)
Visibility: 6 or more miles (10+ km)
Ceiling: at least 12,000 feet AGL
Clouds: few clouds at 2500 feet AGL
Weather: no significant weather observed at this time

METAR text: ENBR 111250Z 36007KT 320V080 9999 FEW020 06/M06 Q1016 NOSIG RMK WIND 1200FT 03007KT
Conditions at: ENBR (BERGEN/FLESLAND , NO) observed 1250 UTC 11 April 2021
Temperature: 6.0°C (43°F)
Dewpoint: -6.0°C (21°F) [RH = 42%]
Pressure (altimeter): 30.00 inches Hg (1016.0 mb)
Winds: from the N (360 degrees) at 8 MPH (7 knots; 3.6 m/s)
Visibility: 6 or more miles (10+ km)
Ceiling: at least 12,000 feet AGL
Clouds: few clouds at 2000 feet AGL
Weather: no significant weather observed at this time

Forecast for: ENBR (BERGEN/FLESLAND , NO)
Text: TAF ENBR 1112/1212 36008KT 9999 FEW030
Forecast period: 1200 UTC 11 April 2021 to 1200 UTC 12 April 2021
Forecast type: FROM: standard forecast or significant change
Winds: from the N (360 degrees) at 9 MPH (8 knots; 4.1 m/s)
Visibility: 6 or more miles (10+ km)
Ceiling: at least 12,000 feet AGL
Clouds: few clouds at 3000 feet AGL
Weather: no significant weather forecast for this period